Richmond North's Hourly Summary for Monday, July 9, 2018
Hour Temp
(f)
RH
(%)
Solar Rad.
(MJ/m2)
Rainfall
(in)
Wind
(mph)
7/9/2018 12:00 AM 74 96 0 0 0
7/9/2018 1:00 AM 73 98 0 0 0
7/9/2018 2:00 AM 72 98 0 0 0
7/9/2018 3:00 AM 72 99 0 0 0
7/9/2018 4:00 AM 72 99 0 0 0
7/9/2018 5:00 AM 73 99 0 0 0
7/9/2018 6:00 AM 73 99 0.02 0 0
7/9/2018 7:00 AM 75 99 0.22 0 0
7/9/2018 8:00 AM 77 93 0.46 0 0.03
7/9/2018 9:00 AM 81 80 1.16 0 0.5
7/9/2018 10:00 AM 82 81 1.09 0.01 0.83
7/9/2018 11:00 AM 84 61 2.24 0 0.84
7/9/2018 12:00 PM 84 58 2.72 0 3.58
7/9/2018 1:00 PM 79 72 0.73 0 2.36
7/9/2018 2:00 PM 77 82 0.32 0 1.13
7/9/2018 3:00 PM 77 81 0.53 0 1.52
7/9/2018 4:00 PM 79 74 0.98 0 1.39
7/9/2018 5:00 PM 83 68 1.43 0 1.11
7/9/2018 6:00 PM 86 66 1.11 0 0.84
7/9/2018 7:00 PM 85 68 0.44 0 0.41
7/9/2018 8:00 PM 79 82 0.02 0 0.02
7/9/2018 9:00 PM 77 93 0 0 0.01
7/9/2018 10:00 PM 76 96 0 0 0.01
7/9/2018 11:00 PM 75 97 0 0 0
Data Summary 77 84 13.47 0.01 0.61